• Join FlightAware (Why Join?)
  • Login
  • US Flag 
04:36PM EDT


 

Airport Tracker/Info


-or-


 

Live Flight TrackerFlight Track Log ✈ AAL1653 ✈ 11-Sep-2013 ✈ TTPP / POS - KMIA

Flight Track Log - Related Links

Times and Time Zones

All times are in EDT time to prevent confusion due to time zone crossing. See the AAL1653 flight status page for this flight to view local times or setup timezone preferences in your user account.

Time Position Orientation Groundspeed Altitude Reporting Facility
EDT Latitude Longitude Course Direction KTS MPH feet Rate Location/Type
03:10PM 10.9017 -61.5293 328° Northwest  Level FlightAware Approximate
03:11PM 11.0038 -61.5934 328° Northwest  Level FlightAware Approximate
03:12PM 11.1058 -61.6575 328° Northwest  Level FlightAware Approximate
03:13PM 11.2079 -61.7217 328° Northwest  Level FlightAware Approximate
03:14PM 11.3099 -61.7859 328° Northwest  Level FlightAware Approximate
03:15PM 11.4120 -61.8502 328° Northwest  Level FlightAware Approximate
03:16PM 11.5140 -61.9146 328° Northwest  Level FlightAware Approximate
03:17PM 11.6160 -61.9789 328° Northwest  Level FlightAware Approximate
03:18PM 11.7179 -62.0434 328° Northwest  Level FlightAware Approximate
03:19PM 11.8199 -62.1078 328° Northwest  Level FlightAware Approximate
03:20PM 11.9219 -62.1723 328° Northwest  Level FlightAware Approximate
03:21PM 12.0238 -62.2369 328° Northwest  Level FlightAware Approximate
03:22PM 12.1257 -62.3015 328° Northwest  Level FlightAware Approximate
03:23PM 12.2277 -62.3662 328° Northwest  Level FlightAware Approximate
03:24PM 12.3296 -62.4309 328° Northwest  Level FlightAware Approximate
03:25PM 12.4314 -62.4957 328° Northwest  Level FlightAware Approximate
03:26PM 12.5103 -62.5882 328° Northwest  Level Estimated
03:27PM 12.6132 -62.6513 329° Northwest  Level FlightAware Approximate
03:28PM 12.7161 -62.7144 329° Northwest  Level FlightAware Approximate
03:29PM 12.8190 -62.7776 329° Northwest  Level FlightAware Approximate
03:30PM 12.9218 -62.8409 329° Northwest  Level FlightAware Approximate
03:31PM 13.0246 -62.9042 329° Northwest  Level FlightAware Approximate
03:32PM 13.1274 -62.9676 329° Northwest  Level FlightAware Approximate
03:33PM 13.2303 -63.0310 329° Northwest  Level FlightAware Approximate
03:34PM 13.3330 -63.0945 329° Northwest  Level FlightAware Approximate
03:35PM 13.4358 -63.1580 329° Northwest  Level FlightAware Approximate
03:36PM 13.5386 -63.2216 329° Northwest  Level FlightAware Approximate
03:37PM 13.6413 -63.2853 329° Northwest  Level FlightAware Approximate
03:38PM 13.7440 -63.3490 329° Northwest  Level FlightAware Approximate
03:39PM 13.8449 -63.4116 329° Northwest  Level FlightAware Approximate
03:40PM 13.9458 -63.4743 329° Northwest  Level FlightAware Approximate
03:41PM 14.0466 -63.5370 329° Northwest  Level FlightAware Approximate
03:42PM 14.1474 -63.5998 329° Northwest  Level FlightAware Approximate
03:43PM 14.2482 -63.6626 329° Northwest  Level FlightAware Approximate
03:44PM 14.3490 -63.7255 329° Northwest  Level FlightAware Approximate
03:45PM 14.4498 -63.7884 329° Northwest  Level FlightAware Approximate
03:46PM 14.5506 -63.8515 329° Northwest  Level FlightAware Approximate
03:47PM 14.6513 -63.9145 329° Northwest  Level FlightAware Approximate
03:48PM 14.7520 -63.9776 329° Northwest  Level FlightAware Approximate
03:49PM 14.8527 -64.0408 329° Northwest  Level FlightAware Approximate
03:50PM 14.9534 -64.1041 329° Northwest  Level FlightAware Approximate
03:51PM 15.0546 -64.1697 327° Northwest  Level FlightAware Approximate
03:51PM 14.9167 -64.0833 328° Northwest 470 541 38,000  Level San Juan Center
03:52PM 15.1555 -64.2369 327° Northwest  Level FlightAware Approximate
03:52PM 15.0333 -64.1500 331° Northwest 470 541 38,000  Level San Juan Center
03:53PM 15.2564 -64.3041 327° Northwest  Level FlightAware Approximate
03:53PM 15.1500 -64.2333 325° Northwest 470 541 38,000  Level San Juan Center
03:54PM 15.3572 -64.3714 327° Northwest  Level FlightAware Approximate
03:54PM 15.2500 -64.3167 321° Northwest 470 541 38,000  Level San Juan Center
03:55PM 15.4582 -64.4385 329° Northwest  Level FlightAware Approximate
03:55PM 15.3500 -64.4000 321° Northwest 480 552 38,000  Level San Juan Center
03:56PM 15.5604 -64.5035 329° Northwest  Level FlightAware Approximate
03:56PM 15.4500 -64.5000 316° Northwest 490 564 38,000  Level San Juan Center
03:57PM 15.6627 -64.5686 328° Northwest  Level FlightAware Approximate
03:57PM 15.5500 -64.6000 316° Northwest 490 564 38,000  Level San Juan Center
03:58PM 15.6500 -64.6833 321° Northwest 490 564 38,000  Level San Juan Center
03:59PM 15.7500 -64.7667 321° Northwest 480 552 38,000  Level San Juan Center
04:00PM 15.8500 -64.8833 312° West 490 564 38,000  Level San Juan Center
04:01PM 15.9667 -64.9833 321° Northwest 490 564 38,000  Level San Juan Center
04:02PM 16.0667 -65.0667 321° Northwest 480 552 38,000  Level San Juan Center
04:03PM 16.1667 -65.1667 316° Northwest 480 552 38,000  Level San Juan Center
04:04PM 16.2500 -65.2500 316° Northwest 470 541 38,000  Level San Juan Center
04:05PM 16.3500 -65.3333 321° Northwest 480 552 38,000  Level San Juan Center
04:06PM 16.4500 -65.4167 321° Northwest 470 541 38,000  Level San Juan Center
04:07PM 16.5500 -65.5167 316° Northwest 480 552 38,000  Level San Juan Center
04:08PM 16.6500 -65.6167 316° Northwest 480 552 38,000  Level San Juan Center
04:09PM 16.7500 -65.7000 321° Northwest 480 552 38,000  Level San Juan Center
04:10PM 16.8500 -65.8000 316° Northwest 470 541 38,000  Level San Juan Center
04:11PM 16.9500 -65.8833 321° Northwest 480 552 38,000  Level San Juan Center
04:12PM 17.0500 -65.9833 316° Northwest 480 552 38,000  Level San Juan Center
04:13PM 17.1500 -66.0667 321° Northwest 480 552 38,000  Level San Juan Center
04:14PM 17.2500 -66.1667 316° Northwest 480 552 38,100 600 Climbing San Juan Center
04:15PM 17.3500 -66.2667 316° Northwest 480 552 39,200 900 Climbing San Juan Center
04:16PM 17.4500 -66.3500 322° Northwest 480 552 40,000 360 Climbing San Juan Center
04:17PM 17.5500 -66.4500 316° Northwest 480 552 40,000  Level San Juan Center
04:18PM 17.6500 -66.5500 316° Northwest 490 564 40,000  Level San Juan Center
04:19PM 17.7500 -66.6333 322° Northwest 480 552 40,000  Level San Juan Center
04:20PM 17.8500 -66.7333 316° Northwest 480 552 40,000  Level San Juan Center
04:21PM 17.9500 -66.8333 316° Northwest 490 564 40,000  Level San Juan Center
04:22PM 18.0500 -66.9333 316° Northwest 490 564 40,000  Level San Juan Center
04:23PM 18.1500 -67.0333 316° Northwest 490 564 40,000  Level San Juan Center
04:24PM 18.2500 -67.1167 322° Northwest 490 564 40,000  Level San Juan Center
04:25PM 18.3667 -67.2167 321° Northwest 490 564 40,000  Level San Juan Center
04:26PM 18.4667 -67.3167 317° Northwest 490 564 40,000  Level San Juan Center
04:27PM 18.5667 -67.4167 317° Northwest 500 575 40,000  Level San Juan Center
04:28PM 18.6667 -67.5167 317° Northwest 500 575 40,000  Level San Juan Center
04:29PM 18.7667 -67.6167 317° Northwest 490 564 40,000  Level San Juan Center
04:30PM 18.8667 -67.7000 322° Northwest 490 564 40,000  Level San Juan Center
04:31PM 18.9667 -67.8000 317° Northwest 490 564 40,000  Level San Juan Center
04:32PM 19.0667 -67.9000 317° Northwest 490 564 40,000  Level San Juan Center
04:33PM 19.1667 -68.0000 317° Northwest 490 564 40,000  Level San Juan Center
04:34PM 19.2667 -68.1000 317° Northwest 490 564 40,000  Level San Juan Center
04:35PM 19.3667 -68.2000 317° Northwest 490 564 40,000  Level San Juan Center
04:36PM 19.4667 -68.3000 317° Northwest 490 564 40,000  Level San Juan Center
04:37PM 19.5667 -68.4000 317° Northwest 490 564 40,000  Level San Juan Center
04:39PM 19.7169 -68.5300 321° Northwest 581 669 40,000  Level Miami Center
04:40PM 19.7981 -68.6064 318° Northwest 543 625 40,000  Level Miami Center
04:41PM 19.9167 -68.7269 316° Northwest 501 577 40,000  Level Miami Center
04:42PM 20.0114 -68.8294 315° West 490 564 40,000  Level Miami Center
04:43PM 20.0903 -68.9503 305° West 490 564 40,000  Level Miami Center
04:44PM 20.1653 -69.0717 303° West 490 564 40,000  Level Miami Center
04:45PM 20.2400 -69.1933 303° West 495 570 40,000  Level Miami Center
04:46PM 20.3086 -69.3197 300° West 495 570 40,000  Level Miami Center
04:47PM 20.3769 -69.4461 300° West 495 570 40,000  Level Miami Center
04:48PM 20.4433 -69.5731 299° West 495 570 40,000  Level Miami Center
04:49PM 20.5119 -69.6997 300° West 490 564 40,000  Level Miami Center
04:50PM 20.5781 -69.8247 299° West 485 558 40,000  Level Miami Center
04:51PM 20.6461 -69.9494 300° West 485 558 40,000  Level Miami Center
04:52PM 20.7119 -70.0725 300° West 485 558 40,000  Level Miami Center
04:53PM 20.7778 -70.1956 300° West 485 558 40,000  Level Miami Center
04:54PM 20.8456 -70.3186 301° West 480 552 40,000  Level Miami Center
04:55PM 20.9089 -70.4397 299° West 480 552 40,000  Level Miami Center
04:56PM 20.9744 -70.5631 300° West 475 547 40,000  Level Miami Center
04:57PM 21.0400 -70.6867 300° West 475 547 40,000  Level Miami Center
04:58PM 21.1031 -70.8081 299° West 470 541 40,000  Level Miami Center
04:59PM 21.1706 -70.9383 299° West 470 541 40,000  Level Miami Center
05:00PM 21.2294 -71.0581 298° West 465 535 40,000  Level Miami Center
05:01PM 21.2922 -71.1778 299° West 465 535 40,000  Level Miami Center
05:02PM 21.3556 -71.3067 298° West 470 541 40,000  Level Miami Center
05:03PM 21.4200 -71.4219 301° West 465 535 40,000  Level Miami Center
05:04PM 21.4825 -71.5375 300° West 460 529 40,000  Level Miami Center
05:05PM 21.5450 -71.6578 299° West 460 529 40,000  Level Miami Center
05:06PM 21.6072 -71.7736 300° West 455 524 40,000  Level Miami Center
05:07PM 21.6697 -71.8939 299° West 455 524 40,000  Level Miami Center
05:08PM 21.7319 -72.0122 300° West 455 524 40,000  Level Miami Center
05:09PM 21.7853 -72.1175 299° West 455 524 40,000  Level Miami Center
05:10PM 21.8475 -72.2361 299° West 455 524 40,000  Level Miami Center
05:11PM 21.9072 -72.3547 299° West 455 524 40,000  Level Miami Center
05:12PM 21.9650 -72.4714 298° West 449 517 40,000  Level Miami Center
05:13PM 22.0267 -72.5900 299° West 449 517 40,000  Level Miami Center
05:14PM 22.0886 -72.7069 300° West 449 517 40,000  Level Miami Center
05:15PM 22.1503 -72.8258 299° West 449 517 40,000  Level Miami Center
05:16PM 22.2097 -72.9450 298° West 449 517 40,000  Level Miami Center
05:17PM 22.2669 -73.0600 298° West 444 511 40,000  Level Miami Center
05:18PM 22.3261 -73.1728 300° West 439 505 40,000  Level Miami Center
05:19PM 22.3831 -73.2903 298° West 439 505 40,000  Level Miami Center
05:20PM 22.4400 -73.4031 299° West 439 505 40,000  Level Miami Center
05:21PM 22.4969 -73.5275 296° West 434 499 40,000  Level Miami Center
05:22PM 22.5558 -73.6431 299° West 434 499 40,000  Level Miami Center
05:23PM 22.6064 -73.7586 295° West 429 494 40,000  Level Miami Center
05:24PM 22.6650 -73.8697 300° West 424 488 40,000  Level Miami Center
05:25PM 22.7194 -73.9833 297° West 424 488 40,000  Level Miami Center
05:26PM 22.7781 -74.1014 298° West 424 488 40,000  Level Miami Center
05:27PM 22.8364 -74.2128 300° West 429 494 40,000  Level Miami Center
05:28PM 22.8908 -74.3289 297° West 429 494 40,000  Level Miami Center
05:29PM 22.9489 -74.4406 299° West 429 494 40,000  Level Miami Center
05:30PM 23.0050 -74.5547 298° West 429 494 40,000  Level Miami Center
05:31PM 23.0589 -74.6667 298° West 429 494 40,000  Level Miami Center
05:32PM 23.1150 -74.7786 299° West 429 494 40,000  Level Miami Center
05:33PM 23.1686 -74.8931 297° West 429 494 40,000  Level Miami Center
05:34PM 23.2244 -75.0072 298° West 429 494 40,000  Level Miami Center
05:35PM 23.2800 -75.1197 298° West 429 494 40,000  Level Miami Center
05:36PM 23.3336 -75.2319 298° West 429 494 40,000  Level Miami Center
05:37PM 23.3892 -75.3444 298° West 429 494 40,000  Level Miami Center
05:38PM 23.4425 -75.4572 297° West 429 494 40,000  Level Miami Center
05:39PM 23.4978 -75.5675 299° West 429 494 40,000  Level Miami Center
05:40PM 23.5550 -75.6803 299° West 429 494 40,000  Level Miami Center
05:41PM 23.6039 -75.7886 296° West 429 494 40,000  Level Miami Center
05:42PM 23.6550 -75.9039 296° West 427 491 40,000  Level Miami Center
05:43PM 23.7036 -76.0125 296° West 413 475 40,000  Level Miami Center
05:44PM 23.7564 -76.1233 298° West 408 470 40,000  Level Miami Center
05:45PM 23.8072 -76.2319 297° West 403 464 40,000  Level Miami Center
05:46PM 23.8578 -76.3431 296° West 403 464 40,000  Level Miami Center
05:47PM 23.9083 -76.4497 297° West 403 464 40,000  Level Miami Center
05:48PM 23.9567 -76.5564 296° West 403 464 40,000  Level Miami Center
05:49PM 24.0069 -76.6656 297° West 403 464 40,000  Level Miami Center
05:50PM 24.0572 -76.7769 296° West 403 464 40,000  Level Miami Center
05:51PM 24.1117 -76.8886 298° West 393 452 40,000  Level Miami Center
05:52PM 24.1636 -77.0000 297° West 393 452 40,000  Level Miami Center
05:53PM 24.2139 -77.1094 297° West 393 452 40,000  Level Miami Center
05:54PM 24.2617 -77.2167 296° West 398 458 40,000  Level Miami Center
05:55PM 24.3136 -77.3286 297° West 405 466 40,000  Level Miami Center
05:56PM 24.3633 -77.4383 296° West 405 466 40,000  Level Miami Center
05:57PM 24.4150 -77.5481 297° West 405 466 40,000  Level Miami Center
05:58PM 24.4647 -77.6556 297° West 400 460 40,000  Level Miami Center
05:59PM 24.5122 -77.7678 295° West 400 460 40,000  Level Miami Center
06:00PM 24.5636 -77.8781 297° West 400 460 40,000  Level Miami Center
06:01PM 24.6069 -77.9742 296° West 400 460 40,000  Level Miami Center
06:02PM 24.6583 -78.0844 297° West 400 460 40,000 -600 Level Miami Center
06:03PM 24.7433 -78.1700 318° Northwest 400 460 38,800 -1,260 Descending Miami Center
06:04PM 24.8494 -78.2192 337° Northwest 403 464 37,500 -1,380 Descending Miami Center
06:05PM 24.9428 -78.2844 328° Northwest 403 464 36,100 -780 Descending Miami Center
06:06PM 25.0067 -78.3861 305° West 392 451 36,000 -180 Descending Miami Center
06:07PM 25.0450 -78.5103 289° West 397 457 35,800 -780 Descending Miami Center
06:08PM 25.0792 -78.6347 287° West 413 475 34,500 -1,500 Descending Miami Center
06:09PM 25.1172 -78.7614 288° West 428 493 32,800 -1,800 Descending Miami Center
06:10PM 25.1511 -78.8861 287° West 433 498 31,000 -1,860 Descending Miami Center
06:11PM 25.1931 -79.0222 289° West 433 498 29,100 -2,040 Descending Miami Center
06:12PM 25.2289 -79.1444 288° West 423 487 27,000 -2,460 Descending Miami Center
06:13PM 25.2625 -79.2647 287° West 423 487 24,200 -2,700 Descending Miami Center
06:14PM 25.2958 -79.3847 287° West 423 487 21,700 -2,700 Descending Miami Center
06:15PM 25.3272 -79.4981 287° West 409 471 18,800 -2,880 Descending Miami Center
06:15PM 25.3428 -79.5650 284° West 374 430 17,200 -3,120 Descending Miami Center
06:16PM 25.3589 -79.6044 294° West 385 443 15,700 -3,300 Descending Miami Center
06:17PM 25.3883 -79.7086 287° West 366 421 12,500 -1,920 Descending Miami Center
06:18PM 25.4306 -79.7925 299° West 341 392 12,100 -540 Descending Miami Center
06:18PM 25.4408 -79.7975 336° Northwest 352 405 12,000 -240 Descending Miami Center
06:19PM 25.4933 -79.8814 305° West 341 392 11,900 -600 Descending Miami Center
06:20PM 25.5419 -79.9564 306° West 323 372 10,800 -1,380 Descending Miami Center
06:21PM 25.5947 -80.0314 308° West 314 361 9,200 -1,440 Descending Miami Center
06:22PM 25.6369 -80.1064 302° West 300 345 8,000 -1,200 Descending Miami Center
06:22PM 25.6433 -80.1064 360° North 308 354 8,000 -180 Level Miami Center
06:23PM 25.6744 -80.1994 290° West 301 346 7,800 -1,200 Descending Miami Center
06:24PM 25.6975 -80.2878 286° West 285 328 5,500 -2,040 Descending Miami Center
06:25PM 25.7083 -80.3594 280° West 293 337 4,000 -1,260 Descending Miami Center
06:25PM 25.7036 -80.3825 257° West 260 299 4,100 -720 Climbing Miami Center
06:26PM 25.7042 -80.4494 271° West 229 264 3,200 -540 Descending Miami Center
06:27PM 25.6981 -80.5253 265° West 222 255 3,100 -60 Descending Miami Center
06:28PM 25.6989 -80.5758 271° West 215 247 3,100  Level Miami Center
06:29PM 25.7333 -80.6161 314° West 205 236 3,100 -60 Level Miami Center
06:30PM 25.7719 -80.5828 38° Northeast 189 217 3,000 -60 Descending Miami Center
06:31PM 25.7756 -80.5231 86° East 191 220 3,000 -120 Level Miami Center
06:32PM 25.7747 -80.4675 91° East 183 211 2,800 -660 Descending Miami Center
06:33PM 25.7803 -80.4147 83° East 171 197 1,700 -900 Descending Miami Center
06:34PM 25.7792 -80.3661 91° East 137 158 1,000 -780 Descending Miami Center
06:35PM 25.7822 -80.3294 85° East 136 157 300 -780 Descending Miami Center